createdAt,value
2023-05-21T00:02:09.788Z,2.80
2023-05-21T00:04:36.518Z,2.67
2023-05-21T00:07:04.891Z,2.72
2023-05-21T00:09:31.662Z,3.03
2023-05-21T00:12:01.317Z,2.83
2023-05-21T00:14:28.092Z,3.42
2023-05-21T00:16:54.914Z,3.00
2023-05-21T00:19:21.796Z,3.00
2023-05-21T00:21:48.619Z,3.08
2023-05-21T00:24:16.765Z,3.20
2023-05-21T00:26:46.338Z,3.20
2023-05-21T00:29:13.110Z,2.95
2023-05-21T00:31:39.922Z,2.92
2023-05-21T00:34:06.717Z,3.47
2023-05-21T00:36:33.531Z,3.60
2023-05-21T00:39:00.361Z,3.35
2023-05-21T00:41:28.512Z,3.30
2023-05-21T00:43:55.311Z,3.40
2023-05-21T00:46:25.064Z,3.30
2023-05-21T00:48:52.468Z,3.67
2023-05-21T00:51:22.161Z,3.75
2023-05-21T00:53:51.043Z,3.13
2023-05-21T00:56:19.731Z,3.20
2023-05-21T00:58:48.033Z,3.35
2023-05-21T01:01:15.009Z,3.25
2023-05-21T01:03:44.829Z,3.47
2023-05-21T01:06:14.602Z,3.55
2023-05-21T01:08:41.659Z,3.40
2023-05-21T01:11:09.756Z,3.42
2023-05-21T01:13:39.779Z,3.73
2023-05-21T01:16:09.371Z,3.13
2023-05-21T01:18:38.497Z,3.50
2023-05-21T01:21:06.124Z,3.58
2023-05-21T01:23:34.507Z,3.45
2023-05-21T01:26:01.418Z,3.75
2023-05-21T01:28:30.772Z,3.80
2023-05-21T01:31:00.269Z,4.22
2023-05-21T01:33:33.749Z,3.78
2023-05-21T01:36:06.720Z,4.00
2023-05-21T01:38:41.161Z,3.47
2023-05-21T01:41:12.421Z,4.40
2023-05-21T01:43:45.150Z,3.83
2023-05-21T01:46:17.076Z,4.10
2023-05-21T01:48:48.032Z,4.13
2023-05-21T01:51:15.207Z,4.03
2023-05-21T01:53:49.503Z,4.35
2023-05-21T01:56:16.263Z,3.80
2023-05-21T01:58:43.060Z,3.60
2023-05-21T02:01:09.973Z,3.83
2023-05-21T02:03:49.084Z,4.50
2023-05-21T02:06:15.949Z,4.28
2023-05-21T02:08:44.155Z,4.50
2023-05-21T02:11:18.125Z,4.85
2023-05-21T02:13:44.948Z,4.30
2023-05-21T02:16:12.883Z,4.30
2023-05-21T02:18:39.739Z,4.18
2023-05-21T02:21:06.517Z,4.40
2023-05-21T02:23:33.332Z,4.53
2023-05-21T02:26:01.464Z,4.82
2023-05-21T02:28:28.263Z,5.05
2023-05-21T02:30:57.637Z,5.07
2023-05-21T02:33:24.418Z,4.80
2023-05-21T02:35:51.252Z,4.50
2023-05-21T02:38:18.060Z,4.57
2023-05-21T02:40:44.815Z,4.80
2023-05-21T02:43:14.745Z,4.35
2023-05-21T02:45:45.946Z,4.10
2023-05-21T02:48:12.813Z,4.30
2023-05-21T02:50:39.620Z,4.07
2023-05-21T02:53:06.378Z,4.18
2023-05-21T02:55:33.174Z,4.60
2023-05-21T02:58:00.039Z,4.45
2023-05-21T03:00:36.903Z,4.10
2023-05-21T03:03:04.290Z,3.72
2023-05-21T03:05:31.247Z,4.13
2023-05-21T03:07:58.033Z,4.35
2023-05-21T03:10:25.046Z,4.10
2023-05-21T03:12:51.851Z,5.50
2023-05-21T03:15:18.649Z,4.47
2023-05-21T03:17:46.779Z,4.38
2023-05-21T03:20:14.702Z,4.65
2023-05-21T03:22:42.237Z,4.70
2023-05-21T03:25:10.053Z,4.80
2023-05-21T03:27:36.862Z,4.90
2023-05-21T03:30:05.330Z,5.03
2023-05-21T03:32:35.258Z,4.47
2023-05-21T03:35:03.712Z,4.57
2023-05-21T03:37:30.550Z,4.55
2023-05-21T03:39:57.399Z,5.07
2023-05-21T03:42:24.167Z,5.10
2023-05-21T03:44:50.910Z,5.07
2023-05-21T03:47:17.683Z,4.60
2023-05-21T03:49:44.468Z,4.80
2023-05-21T03:52:13.958Z,4.75
2023-05-21T03:54:42.492Z,4.85
2023-05-21T03:57:09.839Z,5.03
2023-05-21T03:59:36.634Z,5.60
2023-05-21T04:02:03.622Z,5.78
2023-05-21T04:04:30.433Z,4.93
2023-05-21T04:06:57.369Z,5.45
2023-05-21T04:09:25.454Z,5.40
2023-05-21T04:11:52.298Z,5.00
2023-05-21T04:14:19.108Z,5.43
2023-05-21T04:16:45.892Z,4.90
2023-05-21T04:19:12.740Z,5.15
2023-05-21T04:21:39.578Z,5.00
2023-05-21T04:24:06.458Z,5.20
2023-05-21T04:26:34.564Z,5.50
2023-05-21T04:29:01.330Z,6.33
2023-05-21T04:31:28.182Z,5.57
2023-05-21T04:33:54.995Z,5.43
2023-05-21T04:36:25.572Z,5.72
2023-05-21T04:38:52.316Z,5.13
2023-05-21T04:41:19.264Z,5.10
2023-05-21T04:43:47.401Z,5.97
2023-05-21T04:46:14.396Z,5.63
2023-05-21T04:48:44.254Z,5.28
2023-05-21T04:51:11.039Z,5.00
2023-05-21T04:53:37.870Z,5.43
2023-05-21T04:56:07.462Z,5.63
2023-05-21T04:58:34.224Z,5.47
2023-05-21T05:01:02.371Z,5.10
2023-05-21T05:03:29.434Z,4.90
2023-05-21T05:05:56.349Z,5.63
2023-05-21T05:08:23.096Z,4.75
2023-05-21T05:10:49.862Z,5.10
2023-05-21T05:13:16.643Z,4.32
2023-05-21T05:15:43.432Z,4.55
2023-05-21T05:18:11.583Z,5.10
2023-05-21T05:20:38.586Z,5.05
2023-05-21T05:23:05.343Z,4.93
2023-05-21T05:25:32.521Z,4.80
2023-05-21T05:27:59.298Z,4.97
2023-05-21T05:30:26.090Z,5.10
2023-05-21T05:32:52.862Z,4.90
2023-05-21T05:35:23.570Z,5.10
2023-05-21T05:37:50.390Z,4.70
2023-05-21T05:40:17.461Z,5.07
2023-05-21T05:42:44.580Z,4.43
2023-05-21T05:45:15.864Z,5.10
2023-05-21T05:47:42.678Z,5.20
2023-05-21T05:50:12.267Z,5.50
2023-05-21T05:52:40.385Z,5.57
2023-05-21T05:55:08.025Z,5.72
2023-05-21T05:57:38.674Z,5.18
2023-05-21T06:00:06.810Z,5.13
2023-05-21T06:02:33.719Z,6.60
2023-05-21T06:05:04.592Z,5.63
2023-05-21T06:07:31.369Z,5.18
2023-05-21T06:10:02.519Z,5.03
2023-05-21T06:12:43.358Z,4.82
2023-05-21T06:15:10.511Z,5.95
2023-05-21T06:17:37.450Z,5.30
2023-05-21T06:20:08.859Z,5.38
2023-05-21T06:22:37.610Z,6.38
2023-05-21T06:25:11.838Z,4.63
2023-05-21T06:27:38.796Z,5.32
2023-05-21T06:30:06.871Z,5.25
2023-05-21T06:32:33.852Z,5.60
2023-05-21T06:35:01.019Z,5.82
2023-05-21T06:37:27.854Z,5.45
2023-05-21T06:39:54.617Z,6.15
2023-05-21T06:42:22.846Z,5.40
2023-05-21T06:44:49.910Z,5.40
2023-05-21T06:47:16.674Z,5.18
2023-05-21T06:49:46.594Z,5.05
2023-05-21T06:52:13.424Z,4.90
2023-05-21T06:54:40.177Z,5.25
2023-05-21T06:57:06.952Z,5.20
2023-05-21T06:59:35.104Z,4.97
2023-05-21T07:02:04.356Z,5.22
2023-05-21T07:04:31.534Z,4.70
2023-05-21T07:06:58.367Z,5.38
2023-05-21T07:09:25.249Z,4.93
2023-05-21T07:11:52.119Z,5.15
2023-05-21T07:14:18.890Z,5.22
2023-05-21T07:16:47.115Z,4.80
2023-05-21T07:19:15.175Z,5.18
2023-05-21T07:21:44.549Z,5.38
2023-05-21T07:24:11.337Z,5.47
2023-05-21T07:26:38.248Z,4.97
2023-05-21T07:29:08.581Z,4.60
2023-05-21T07:31:37.917Z,5.05
2023-05-21T07:34:06.226Z,5.15
2023-05-21T07:36:33.163Z,4.95
2023-05-21T07:39:01.124Z,4.22
2023-05-21T07:41:30.128Z,5.25
2023-05-21T07:43:56.953Z,5.65
2023-05-21T07:46:24.778Z,5.15
2023-05-21T07:48:56.709Z,5.60
2023-05-21T07:51:25.168Z,5.32
2023-05-21T07:53:52.784Z,5.18
2023-05-21T07:56:21.455Z,5.00
2023-05-21T07:58:48.595Z,5.43
2023-05-21T08:01:17.950Z,5.18
2023-05-21T08:03:44.902Z,5.40
2023-05-21T08:06:12.103Z,5.50
2023-05-21T08:08:40.727Z,4.85
2023-05-21T08:11:07.596Z,5.07
2023-05-21T08:13:37.179Z,5.05
2023-05-21T08:16:05.926Z,5.13
2023-05-21T08:18:32.841Z,4.97
2023-05-21T08:20:59.621Z,5.43
2023-05-21T08:23:29.513Z,5.38
2023-05-21T08:25:57.708Z,5.28
2023-05-21T08:28:33.660Z,5.28
2023-05-21T08:31:00.425Z,5.75
2023-05-21T08:33:31.206Z,5.72
2023-05-21T08:35:58.065Z,6.10
2023-05-21T08:38:28.703Z,5.70
2023-05-21T08:40:59.779Z,5.32
2023-05-21T08:43:28.631Z,4.97
2023-05-21T08:48:28.028Z,5.80
2023-05-21T08:50:56.897Z,6.03
2023-05-21T08:53:28.786Z,5.15
2023-05-21T08:55:57.996Z,5.57
2023-05-21T08:58:32.397Z,5.70
2023-05-21T09:01:01.112Z,5.90
2023-05-21T09:03:28.896Z,5.82
2023-05-21T09:06:00.359Z,6.37
2023-05-21T09:08:34.070Z,5.32
2023-05-21T09:11:02.659Z,5.18
2023-05-21T09:13:31.652Z,6.43
2023-05-21T09:15:59.146Z,5.15
2023-05-21T09:18:28.474Z,6.20
2023-05-21T09:20:55.224Z,5.75
2023-05-21T09:23:22.818Z,5.90
2023-05-21T09:25:51.552Z,5.82
2023-05-21T09:28:19.840Z,5.78
2023-05-21T09:30:48.809Z,6.53
2023-05-21T09:33:30.861Z,5.60
2023-05-21T09:36:02.137Z,5.70
2023-05-21T09:38:29.010Z,5.95
2023-05-21T09:40:55.903Z,6.03
2023-05-21T09:43:26.437Z,6.45
2023-05-21T09:45:55.076Z,6.13
2023-05-21T09:48:35.074Z,5.78
2023-05-21T09:51:17.082Z,6.50
2023-05-21T09:53:55.759Z,5.32
2023-05-21T09:56:28.330Z,6.63
2023-05-21T09:58:58.056Z,6.45
2023-05-21T10:01:24.983Z,6.43
2023-05-21T10:03:56.750Z,6.80
2023-05-21T10:06:26.140Z,7.25
2023-05-21T10:08:55.334Z,7.25
2023-05-21T10:11:24.864Z,6.45
2023-05-21T10:14:01.167Z,6.65
2023-05-21T10:16:29.437Z,6.80
2023-05-21T10:18:57.737Z,7.40
2023-05-21T10:21:29.364Z,7.20
2023-05-21T10:23:57.850Z,7.78
2023-05-21T10:26:25.156Z,7.68
2023-05-21T10:28:52.442Z,8.20
2023-05-21T10:31:20.795Z,7.82
2023-05-21T10:33:59.463Z,8.30
2023-05-21T10:36:32.918Z,7.93
2023-05-21T10:39:01.970Z,7.97
2023-05-21T10:41:36.177Z,9.02
2023-05-21T10:44:15.439Z,7.38
2023-05-21T10:47:20.827Z,9.18
2023-05-21T10:50:08.878Z,8.65
2023-05-21T10:52:52.236Z,9.13
2023-05-21T10:55:32.415Z,8.75
2023-05-21T10:58:43.673Z,9.23
2023-05-21T11:01:13.884Z,8.43
2023-05-21T11:03:42.727Z,9.48
2023-05-21T11:06:10.176Z,8.52
2023-05-21T11:08:36.972Z,9.15
2023-05-21T11:11:07.086Z,9.13
2023-05-21T11:13:46.018Z,9.07
2023-05-21T11:16:17.031Z,9.05
2023-05-21T11:19:06.919Z,8.32
2023-05-21T11:21:40.042Z,8.50
2023-05-21T11:24:10.086Z,8.98
2023-05-21T11:27:00.105Z,9.48
2023-05-21T11:29:44.898Z,8.68
2023-05-21T11:32:19.475Z,8.52
2023-05-21T11:34:48.227Z,8.60
2023-05-21T11:37:37.473Z,8.20
2023-05-21T11:40:22.770Z,8.65
2023-05-21T11:42:51.188Z,9.00
2023-05-21T11:45:18.920Z,8.75
2023-05-21T11:47:47.057Z,9.23
2023-05-21T11:50:16.122Z,8.75
2023-05-21T11:52:46.255Z,8.88
2023-05-21T11:55:13.212Z,8.52
2023-05-21T11:57:42.417Z,7.57
2023-05-21T12:00:14.486Z,7.85
2023-05-21T12:02:45.770Z,8.73
2023-05-21T12:05:13.297Z,8.32
2023-05-21T12:07:46.889Z,8.75
2023-05-21T12:10:28.600Z,8.60
2023-05-21T12:12:58.300Z,8.43
2023-05-21T12:15:29.129Z,8.32
2023-05-21T12:17:56.462Z,8.18
2023-05-21T12:20:23.365Z,8.30
2023-05-21T12:22:51.515Z,7.82
2023-05-21T12:25:19.402Z,7.97
2023-05-21T12:27:46.569Z,7.88
2023-05-21T12:30:14.396Z,8.25
2023-05-21T12:32:42.489Z,8.18
2023-05-21T12:35:09.544Z,7.25
2023-05-21T12:37:37.741Z,7.30
2023-05-21T12:40:09.954Z,6.97
2023-05-21T12:42:37.138Z,7.32
2023-05-21T12:45:07.288Z,7.35
2023-05-21T12:47:34.530Z,7.05
2023-05-21T12:50:02.689Z,7.45
2023-05-21T12:52:30.167Z,8.13
2023-05-21T12:54:57.507Z,7.18
2023-05-21T12:57:30.252Z,6.75
2023-05-21T12:59:59.549Z,6.97
2023-05-21T13:02:27.724Z,7.50
2023-05-21T13:07:38.351Z,7.38
2023-05-21T13:10:09.367Z,7.55
2023-05-21T13:12:42.136Z,7.03
2023-05-21T13:15:13.912Z,7.22
2023-05-21T13:17:41.131Z,7.07
2023-05-21T13:20:12.728Z,7.30
2023-05-21T13:22:40.696Z,6.95
2023-05-21T13:25:11.103Z,6.30
2023-05-21T13:27:40.346Z,6.40
2023-05-21T13:32:51.908Z,6.80
2023-05-21T13:35:18.876Z,7.10
2023-05-21T13:37:47.721Z,7.30
2023-05-21T13:40:17.556Z,6.90
2023-05-21T13:42:49.813Z,5.90
2023-05-21T13:45:18.550Z,6.43
2023-05-21T13:47:46.260Z,6.93
2023-05-21T13:50:16.330Z,7.38
2023-05-21T13:52:43.220Z,6.82
2023-05-21T13:55:10.479Z,7.47
2023-05-21T13:57:37.342Z,7.22
2023-05-21T14:00:08.655Z,6.53
2023-05-21T14:02:35.656Z,7.05
2023-05-21T14:05:02.553Z,6.20
2023-05-21T14:07:29.614Z,7.50
2023-05-21T14:09:56.671Z,7.50
2023-05-21T14:12:23.780Z,7.22
2023-05-21T14:14:51.219Z,6.82
2023-05-21T14:17:19.485Z,7.28
2023-05-21T14:19:48.897Z,7.68
2023-05-21T14:22:15.781Z,7.78
2023-05-21T14:24:45.615Z,7.35
2023-05-21T14:27:14.558Z,7.65
2023-05-21T14:29:44.041Z,7.80
2023-05-21T14:32:13.711Z,7.82
2023-05-21T14:34:44.079Z,7.18
2023-05-21T14:37:10.877Z,7.03
2023-05-21T14:39:37.683Z,8.00
2023-05-21T14:42:07.876Z,7.20
2023-05-21T14:44:34.679Z,7.40
2023-05-21T14:47:01.533Z,7.22
2023-05-21T14:49:30.102Z,8.27
2023-05-21T14:51:58.249Z,6.95
2023-05-21T14:54:25.519Z,6.85
2023-05-21T14:56:57.596Z,7.32
2023-05-21T14:59:25.790Z,7.50
2023-05-21T15:01:52.676Z,7.07
2023-05-21T15:04:19.536Z,7.70
2023-05-21T15:06:48.973Z,7.82
2023-05-21T15:09:17.323Z,7.72
2023-05-21T15:11:44.440Z,7.28
2023-05-21T15:14:14.121Z,7.88
2023-05-21T15:16:43.744Z,7.85
2023-05-21T15:19:13.584Z,7.53
2023-05-21T15:21:40.423Z,8.00
2023-05-21T15:24:09.409Z,8.13
2023-05-21T15:26:37.556Z,8.23
2023-05-21T15:29:04.351Z,8.20
2023-05-21T15:31:31.291Z,7.82
2023-05-21T15:34:00.586Z,7.78
2023-05-21T15:36:27.392Z,6.90
2023-05-21T15:38:55.283Z,7.93
2023-05-21T15:41:22.212Z,7.43
2023-05-21T15:43:53.207Z,8.40
2023-05-21T15:46:23.039Z,8.00
2023-05-21T15:48:50.097Z,8.43
2023-05-21T15:51:17.415Z,8.50
2023-05-21T15:53:44.245Z,8.10
2023-05-21T15:56:11.074Z,7.97
2023-05-21T15:58:37.846Z,7.45
2023-05-21T16:01:07.185Z,7.50
2023-05-21T16:03:34.010Z,8.30
2023-05-21T16:06:06.965Z,9.13
2023-05-21T16:08:33.912Z,8.80
2023-05-21T16:11:00.864Z,7.75
2023-05-21T16:13:27.727Z,8.18
2023-05-21T16:15:54.527Z,8.35
2023-05-21T16:18:28.263Z,8.43
2023-05-21T16:20:55.699Z,7.93
2023-05-21T16:23:25.319Z,7.88
2023-05-21T16:25:52.142Z,8.48
2023-05-21T16:28:18.900Z,8.93
2023-05-21T16:30:45.897Z,8.93
2023-05-21T16:33:12.702Z,8.70
2023-05-21T16:35:46.422Z,8.35
2023-05-21T16:38:13.240Z,9.63
2023-05-21T16:40:40.003Z,7.85
2023-05-21T16:43:06.881Z,8.43
2023-05-21T16:45:38.589Z,8.75
2023-05-21T16:48:09.326Z,8.82
2023-05-21T16:50:36.141Z,8.68
2023-05-21T16:53:04.378Z,8.23
2023-05-21T16:55:35.707Z,8.27
2023-05-21T16:58:05.286Z,8.50
2023-05-21T17:00:32.551Z,9.60
2023-05-21T17:02:59.646Z,8.98
2023-05-21T17:05:31.538Z,9.20
2023-05-21T17:07:58.333Z,8.88
2023-05-21T17:10:26.484Z,9.10
2023-05-21T17:12:55.183Z,8.98
2023-05-21T17:15:22.161Z,8.27
2023-05-21T17:17:51.845Z,9.05
2023-05-21T17:20:18.714Z,8.23
2023-05-21T17:22:45.487Z,9.02
2023-05-21T17:25:15.077Z,9.48
2023-05-21T17:27:49.332Z,9.27
2023-05-21T17:30:22.230Z,9.25
2023-05-21T17:32:49.071Z,9.00
2023-05-21T17:35:15.897Z,9.63
2023-05-21T17:37:45.145Z,8.82
2023-05-21T17:40:15.226Z,8.90
2023-05-21T17:42:44.459Z,8.75
2023-05-21T17:45:12.800Z,9.25
2023-05-21T17:47:39.594Z,9.25
2023-05-21T17:50:07.864Z,9.38
2023-05-21T17:52:34.608Z,9.20
2023-05-21T17:55:03.549Z,9.07
2023-05-21T17:57:30.343Z,9.43
2023-05-21T18:00:03.336Z,9.35
2023-05-21T18:02:31.555Z,10.13
2023-05-21T18:05:03.892Z,9.98
2023-05-21T18:07:30.629Z,9.10
2023-05-21T18:09:57.472Z,9.02
2023-05-21T18:12:24.276Z,8.98
2023-05-21T18:14:51.089Z,8.55
2023-05-21T18:17:17.919Z,9.52
2023-05-21T18:19:46.077Z,9.18
2023-05-21T18:22:12.969Z,9.40
2023-05-21T18:24:39.782Z,8.93
2023-05-21T18:27:06.733Z,9.45
2023-05-21T18:29:33.548Z,9.57
2023-05-21T18:32:03.475Z,9.15
2023-05-21T18:34:33.242Z,9.52
2023-05-21T18:37:02.756Z,9.20
2023-05-21T18:39:31.418Z,9.80
2023-05-21T18:44:40.612Z,9.73
2023-05-21T18:47:09.804Z,9.80
2023-05-21T18:49:42.743Z,10.25
2023-05-21T18:52:10.884Z,10.00
2023-05-21T18:54:39.933Z,9.45
2023-05-21T18:57:12.369Z,9.98
2023-05-21T18:59:39.133Z,10.30
2023-05-21T19:02:08.906Z,9.48
2023-05-21T19:04:35.790Z,9.35
2023-05-21T19:07:02.610Z,9.45
2023-05-21T19:09:37.844Z,7.95
2023-05-21T19:12:13.584Z,8.10
2023-05-21T19:14:40.386Z,7.75
2023-05-21T19:17:07.244Z,7.95
2023-05-21T19:19:34.094Z,7.75
2023-05-21T19:22:00.979Z,7.88
2023-05-21T19:24:31.108Z,7.68
2023-05-21T19:26:59.384Z,7.40
2023-05-21T19:29:32.320Z,8.10
2023-05-21T19:31:59.164Z,8.60
2023-05-21T19:34:26.070Z,8.55
2023-05-21T19:36:54.006Z,8.57
2023-05-21T19:39:23.731Z,9.02
2023-05-21T19:41:50.794Z,9.05
2023-05-21T19:44:18.937Z,8.57
2023-05-21T19:46:47.585Z,8.50
2023-05-21T19:49:23.664Z,9.17
2023-05-21T19:51:50.526Z,8.90
2023-05-21T19:54:17.319Z,9.25
2023-05-21T19:56:46.913Z,9.70
2023-05-21T19:59:16.536Z,10.20
2023-05-21T20:01:45.212Z,9.27
2023-05-21T20:06:39.217Z,8.90
2023-05-21T20:09:06.613Z,10.00
2023-05-21T20:11:33.847Z,9.93
2023-05-21T20:14:00.654Z,10.60
2023-05-21T20:16:27.656Z,9.55
2023-05-21T20:19:00.131Z,10.68
2023-05-21T20:21:27.242Z,10.57
2023-05-21T20:23:54.035Z,9.60
2023-05-21T20:26:20.820Z,11.70
2023-05-21T20:28:47.856Z,11.50
2023-05-21T20:31:14.798Z,12.85
2023-05-21T20:33:41.614Z,11.63
2023-05-21T20:36:11.015Z,12.00
2023-05-21T20:38:37.803Z,12.32
2023-05-21T20:41:05.030Z,12.52
2023-05-21T20:43:31.924Z,12.93
2023-05-21T20:46:00.274Z,12.75
2023-05-21T20:48:27.352Z,11.02
2023-05-21T20:50:54.385Z,12.65
2023-05-21T20:53:22.532Z,13.57
2023-05-21T20:55:49.389Z,13.02
2023-05-21T20:58:16.151Z,13.13
2023-05-21T21:00:42.876Z,15.27
2023-05-21T21:03:09.729Z,13.98
2023-05-21T21:05:38.435Z,13.50
2023-05-21T21:08:05.676Z,13.52
2023-05-21T21:10:37.190Z,13.20
2023-05-21T21:13:04.169Z,14.27
2023-05-21T21:15:31.007Z,13.50
2023-05-21T21:17:57.867Z,13.13
2023-05-21T21:20:26.934Z,14.30
2023-05-21T21:22:55.475Z,14.30
2023-05-21T21:25:22.277Z,13.63
2023-05-21T21:27:50.364Z,14.98
2023-05-21T21:30:19.900Z,14.18
2023-05-21T21:32:49.013Z,14.75
2023-05-21T21:35:15.908Z,14.13
2023-05-21T21:37:42.704Z,13.82
2023-05-21T21:40:11.626Z,14.07
2023-05-21T21:45:08.193Z,12.85
2023-05-21T21:47:34.979Z,14.00
2023-05-21T21:50:01.793Z,13.40
2023-05-21T21:52:28.686Z,14.05
2023-05-21T21:54:55.501Z,14.15
2023-05-21T21:57:22.438Z,13.95
2023-05-21T21:59:49.455Z,14.13
2023-05-21T22:02:17.732Z,13.60
2023-05-21T22:04:44.717Z,14.00
2023-05-21T22:07:17.193Z,12.95
2023-05-21T22:09:46.377Z,14.75
2023-05-21T22:12:20.392Z,15.23
2023-05-21T22:14:47.178Z,13.50
2023-05-21T22:17:20.668Z,13.95
2023-05-21T22:19:47.486Z,14.48
2023-05-21T22:22:14.355Z,15.35
2023-05-21T22:24:41.133Z,14.15
2023-05-21T22:27:07.935Z,13.57
2023-05-21T22:29:35.874Z,14.82
2023-05-21T22:32:02.766Z,14.37
2023-05-21T22:34:30.879Z,14.77
2023-05-21T22:37:06.828Z,12.43
2023-05-21T22:39:33.620Z,15.85
2023-05-21T22:42:00.466Z,15.07
2023-05-21T22:44:27.232Z,16.13
2023-05-21T22:47:04.054Z,16.13
2023-05-21T22:49:32.206Z,16.17
2023-05-21T22:52:00.229Z,14.60
2023-05-21T22:54:27.130Z,12.73
2023-05-21T22:56:54.021Z,14.38
2023-05-21T22:59:20.791Z,14.80
2023-05-21T23:01:47.637Z,18.00
2023-05-21T23:04:14.450Z,17.27
2023-05-21T23:06:42.560Z,16.33
2023-05-21T23:09:09.380Z,15.98
2023-05-21T23:11:36.158Z,15.85
2023-05-21T23:14:03.048Z,17.08
2023-05-21T23:16:32.672Z,17.90
2023-05-21T23:18:59.733Z,17.67
2023-05-21T23:21:26.612Z,15.95
2023-05-21T23:23:57.664Z,16.65
2023-05-21T23:26:27.259Z,15.75
2023-05-21T23:28:56.445Z,17.55
2023-05-21T23:31:23.339Z,17.85
2023-05-21T23:33:50.710Z,16.90
2023-05-21T23:36:20.293Z,19.10
2023-05-21T23:38:47.109Z,17.77
2023-05-21T23:41:15.353Z,16.88
2023-05-21T23:43:48.408Z,16.80
2023-05-21T23:46:19.571Z,17.38
2023-05-21T23:48:46.387Z,16.40
2023-05-21T23:51:13.252Z,16.40
2023-05-21T23:53:43.214Z,18.45
2023-05-21T23:56:11.018Z,17.70
2023-05-21T23:58:39.207Z,19.52
